South Lynnfield, Massachusetts
Current Conditions -  °F | °C
As of 12:53 PM on Thursday 23 Oct 2014 (Local Time) from KBVY Reporting Station
Light Rain Light Rain  
Wind Chill: 52°   Ceiling: 800
Heat Index: 52°   Visibility: 1.5mi
Dew Point: 49°   Wind: 18mph
Humidity: 89%   Direction: 20°NNE
Pressure: 29.61"   Gusts: 39mph
Location:  42.5359°N, 71.0388°W
Report Text: KBVY 231653Z 02016G34KT 1 1/2SM -RA BR OVC008 11/09 A2961 RMK AO2 PK WND 02036/1622 RAB1557 SLP024 P0007 T01110094
Loading
Personal Weather Stations






























Interactive Weather Map
Tropical Storm Tracking
New forecast layout! Learn more

10-Day Weather Forecast

Advertisements
Track Severe Weather on mobile